Time;durP1;ratioP1;P1;durP2;ratioP2;P2;SDS_P1;SDS_P2;PMS_P1;PMS_P2;Temp;Humidity;BMP_temperature;BMP_pressure;BME280_temperature;BME280_humidity;BME280_pressure;Samples;Min_cycle;Max_cycle;Signal;HPM_P1;HPM_P2
2021/06/11 00:00:32;;;;;;;2.33;1.80;;;;;;;;;;5072940;28;20288;-71
2021/06/11 00:02:59;;;;;;;4.50;2.40;;;;;;;;;;5072093;28;20225;-71
2021/06/11 00:05:25;;;;;;;4.03;2.70;;;;;;;;;;5072900;28;20216;-72
2021/06/11 00:07:51;;;;;;;3.07;1.80;;;;;;;;;;5072742;28;20216;-71
2021/06/11 00:10:18;;;;;;;3.17;2.30;;;;;;;;;;5072508;28;20578;-72
2021/06/11 00:12:45;;;;;;;3.17;2.07;;;;;;;;;;5071575;28;20217;-72
2021/06/11 00:15:11;;;;;;;2.70;2.10;;;;;;;;;;5072264;28;20205;-72
2021/06/11 00:17:38;;;;;;;4.03;2.70;;;;;;;;;;5072714;28;20251;-72
2021/06/11 00:20:07;;;;;;;4.60;2.33;;;;;;;;;;5072473;28;20201;-72
2021/06/11 00:22:38;;;;;;;3.53;2.43;;;;;;;;;;5071981;28;20229;-71
2021/06/11 00:25:13;;;;;;;3.40;2.13;;;;;;;;;;5072742;28;20209;-72
2021/06/11 00:27:40;;;;;;;5.43;3.33;;;;;;;;;;5071214;28;21034;-72
2021/06/11 00:30:07;;;;;;;3.37;2.23;;;;;;;;;;5054629;28;20231;-72
2021/06/11 00:32:34;;;;;;;4.37;2.57;;;;;;;;;;5071388;28;20312;-71
2021/06/11 00:35:00;;;;;;;3.87;2.27;;;;;;;;;;5072298;28;20292;-71
2021/06/11 00:37:27;;;;;;;2.77;1.80;;;;;;;;;;5072477;28;20710;-72
2021/06/11 00:39:53;;;;;;;2.70;2.03;;;;;;;;;;5072225;28;20640;-72
2021/06/11 00:42:20;;;;;;;2.70;1.83;;;;;;;;;;5073634;28;20225;-72
2021/06/11 00:44:46;;;;;;;3.27;2.10;;;;;;;;;;5092184;28;20213;-71
2021/06/11 00:47:12;;;;;;;4.03;2.13;;;;;;;;;;5092250;28;20211;-71
2021/06/11 00:49:39;;;;;;;4.03;2.53;;;;;;;;;;5091165;28;20769;-71
2021/06/11 00:52:07;;;;;;;3.33;2.03;;;;;;;;;;5071439;28;20225;-71
2021/06/11 00:54:34;;;;;;;3.83;2.83;;;;;;;;;;5072046;28;20201;-71
2021/06/11 00:57:01;;;;;;;3.30;2.30;;;;;;;;;;5072087;28;20292;-72
2021/06/11 00:59:27;;;;;;;3.60;2.47;;;;;;;;;;5071988;28;20205;-72
2021/06/11 01:34:40;;;;;;;3.07;2.40;;;;;;;17.74;100.00;98204.06;5150608;27;20553;-70
2021/06/11 01:37:13;;;;;;;4.13;2.47;;;;;;;-143.37;100.00;65745.06;5111718;28;20226;-70
2021/06/11 01:39:42;;;;;;;4.17;2.70;;;;;;;-143.37;100.00;65745.06;5129757;28;20746;-70
2021/06/11 01:42:09;;;;;;;2.97;2.10;;;;;;;-143.37;100.00;65745.06;5123378;28;20238;-71
2021/06/11 01:44:38;;;;;;;5.27;2.70;;;;;;;-143.37;100.00;65745.06;5085818;28;20201;-70
2021/06/11 01:47:06;;;;;;;3.60;2.50;;;;;;;-143.37;100.00;65745.06;5088916;28;20296;-70
2021/06/11 01:49:34;;;;;;;3.57;2.63;;;;;;;-143.37;100.00;65745.06;5088874;28;20207;-70
2021/06/11 01:52:05;;;;;;;5.17;2.60;;;;;;;-143.37;100.00;65745.06;5108296;28;20314;-70
2021/06/11 01:54:32;;;;;;;3.10;2.17;;;;;;;-143.37;100.00;65745.06;5108646;28;20668;-70
2021/06/11 01:57:01;;;;;;;3.83;2.43;;;;;;;-143.37;100.00;65745.06;5109049;28;20298;-70
2021/06/11 01:59:28;;;;;;;2.77;2.27;;;;;;;-143.37;100.00;65745.06;5109205;28;20206;-71
2021/06/11 02:01:57;;;;;;;4.53;2.67;;;;;;;-143.37;100.00;65745.06;5090283;28;20246;-70
2021/06/11 02:04:24;;;;;;;3.70;2.83;;;;;;;-143.37;100.00;65745.06;5108797;28;20206;-70
2021/06/11 02:06:51;;;;;;;3.03;1.97;;;;;;;-143.37;100.00;65745.06;5074435;28;20207;-70
2021/06/11 02:09:19;;;;;;;3.80;2.53;;;;;;;-143.37;100.00;65745.06;5108809;28;20736;-70
2021/06/11 02:11:45;;;;;;;4.03;2.20;;;;;;;-143.37;100.00;65745.06;5108012;28;20287;-70
2021/06/11 02:14:14;;;;;;;2.63;2.17;;;;;;;-143.37;100.00;65745.06;5108612;28;20234;-70
2021/06/11 02:16:43;;;;;;;3.73;2.40;;;;;;;-143.37;100.00;65745.06;5108540;28;20208;-70
2021/06/11 02:19:10;;;;;;;2.60;1.87;;;;;;;-143.37;100.00;65745.06;5108772;28;20303;-70
2021/06/11 02:21:39;;;;;;;3.80;2.27;;;;;;;-143.37;100.00;65745.06;5107779;28;20211;-70
2021/06/11 02:24:07;;;;;;;4.20;2.27;;;;;;;-143.37;100.00;65745.06;5108537;28;20652;-71
2021/06/11 02:26:35;;;;;;;3.13;2.37;;;;;;;-143.37;100.00;65745.06;5108539;28;20215;-71
2021/06/11 02:29:02;;;;;;;2.60;2.10;;;;;;;-143.37;100.00;65745.06;5108467;28;20204;-70
2021/06/11 02:31:29;;;;;;;3.10;2.07;;;;;;;-143.37;100.00;65745.06;5107547;28;20311;-70
2021/06/11 02:33:56;;;;;;;4.20;2.23;;;;;;;-143.37;100.00;65745.06;5108022;28;20223;-70
2021/06/11 02:36:22;;;;;;;2.97;2.07;;;;;;;-143.37;100.00;65745.06;5108093;28;20200;-70
2021/06/11 02:38:49;;;;;;;2.90;2.50;;;;;;;-143.37;100.00;65745.06;5108333;28;20208;-71
2021/06/11 02:41:21;;;;;;;2.47;2.17;;;;;;;-143.37;100.00;65745.06;5104052;28;20212;-71
2021/06/11 02:43:50;;;;;;;5.63;2.43;;;;;;;-143.37;100.00;65745.06;5086252;28;20288;-70
2021/06/11 02:46:23;;;;;;;3.33;2.20;;;;;;;-143.37;100.00;65745.06;5074098;28;20741;-71
2021/06/11 02:49:02;;;;;;;3.77;2.30;;;;;;;-143.37;100.00;65745.06;5074670;28;20205;-70
2021/06/11 02:51:33;;;;;;;4.37;2.23;;;;;;;-143.37;100.00;65745.06;5089670;28;20204;-70
2021/06/11 02:54:09;;;;;;;4.13;2.63;;;;;;;-143.37;100.00;65745.06;5094404;28;20749;-70
2021/06/11 02:56:44;;;;;;;3.40;2.50;;;;;;;-143.37;100.00;65745.06;5094115;28;20303;-70
2021/06/11 02:59:45;;;;;;;3.87;2.40;;;;;;;-143.37;100.00;65745.06;5094347;28;20649;-70
2021/06/11 03:02:16;;;;;;;3.17;2.07;;;;;;;-143.37;100.00;65745.06;5050341;28;20259;-70
2021/06/11 03:04:44;;;;;;;2.77;2.07;;;;;;;-143.37;100.00;65745.06;5094145;28;20342;-70
2021/06/11 03:07:19;;;;;;;3.50;2.47;;;;;;;-143.37;100.00;65745.06;5094484;28;20295;-70
2021/06/11 03:09:46;;;;;;;3.00;2.13;;;;;;;-143.37;100.00;65745.06;5094128;28;20298;-70
2021/06/11 03:12:15;;;;;;;1.90;1.57;;;;;;;-143.37;100.00;65745.06;5093169;28;20256;-70
2021/06/11 03:14:44;;;;;;;2.93;2.20;;;;;;;-143.37;100.00;65745.06;5093797;28;20675;-70
2021/06/11 03:17:11;;;;;;;3.80;2.63;;;;;;;-143.37;100.00;65745.06;5093918;28;20236;-70
2021/06/11 03:19:41;;;;;;;3.07;2.20;;;;;;;-143.37;100.00;65745.06;5075760;28;20212;-70
2021/06/11 03:22:14;;;;;;;3.30;2.27;;;;;;;-143.37;100.00;65745.06;5093235;28;20263;-70
2021/06/11 03:24:49;;;;;;;3.00;2.07;;;;;;;-143.37;100.00;65745.06;5076038;28;20223;-70
2021/06/11 03:27:20;;;;;;;2.97;2.17;;;;;;;-143.37;100.00;65745.06;5093800;28;20458;-70
2021/06/11 03:30:05;;;;;;;2.77;1.97;;;;;;;-143.37;100.00;65745.06;5093518;28;20219;-70
2021/06/11 03:32:38;;;;;;;3.10;2.10;;;;;;;-143.37;100.00;65745.06;5092900;28;20270;-70
2021/06/11 03:35:10;;;;;;;3.30;2.43;;;;;;;-143.37;100.00;65745.06;5075639;28;20663;-70
2021/06/11 03:37:37;;;;;;;3.97;2.60;;;;;;;-143.37;100.00;65745.06;5093292;28;20307;-70
2021/06/11 03:40:07;;;;;;;2.70;2.17;;;;;;;-143.37;100.00;65745.06;5093262;28;20209;-70
2021/06/11 03:42:35;;;;;;;3.03;2.20;;;;;;;-143.37;100.00;65745.06;5077161;28;20308;-70
2021/06/11 03:45:02;;;;;;;3.20;2.27;;;;;;;-143.37;100.00;65745.06;5073000;28;20197;-70
2021/06/11 03:47:32;;;;;;;5.23;3.10;;;;;;;-143.37;100.00;65745.06;5073383;28;20296;-70
2021/06/11 03:50:01;;;;;;;2.50;2.17;;;;;;;-143.37;100.00;65745.06;5059276;28;20221;-70
2021/06/11 03:52:30;;;;;;;4.20;2.30;;;;;;;-143.37;100.00;65745.06;5092509;28;20795;-70
2021/06/11 03:55:25;;;;;;;3.07;1.97;;;;;;;-143.37;100.00;65745.06;5093165;28;20307;-70
2021/06/11 03:58:17;;;;;;;2.77;2.13;;;;;;;-143.37;100.00;65745.06;5089660;28;20291;-70
2021/06/11 04:00:46;;;;;;;2.33;1.73;;;;;;;-143.37;100.00;65745.06;5093037;28;20219;-70
2021/06/11 04:03:13;;;;;;;3.60;2.30;;;;;;;-143.37;100.00;65745.06;5092057;28;20220;-70
2021/06/11 04:05:40;;;;;;;3.87;2.70;;;;;;;-143.37;100.00;65745.06;5093312;28;20217;-70
2021/06/11 04:08:09;;;;;;;4.20;2.43;;;;;;;-143.37;100.00;65745.06;5093255;28;20208;-70
2021/06/11 04:10:54;;;;;;;3.27;2.33;;;;;;;-143.37;100.00;65745.06;5092879;28;20251;-70
2021/06/11 04:13:25;;;;;;;5.07;2.30;;;;;;;-143.37;100.00;65745.06;5091987;28;20315;-70
2021/06/11 04:15:54;;;;;;;2.70;1.80;;;;;;;-143.37;100.00;65745.06;5092643;28;20728;-70
2021/06/11 04:18:28;;;;;;;2.90;2.00;;;;;;;-143.37;100.00;65745.06;5092601;28;20216;-70
2021/06/11 04:21:01;;;;;;;3.40;2.20;;;;;;;-143.37;100.00;65745.06;5092806;28;20296;-70
2021/06/11 04:23:34;;;;;;;3.67;2.30;;;;;;;-143.37;100.00;65745.06;5074511;28;20315;-70
2021/06/11 04:26:02;;;;;;;3.37;2.40;;;;;;;-143.37;100.00;65745.06;5092366;28;20236;-70
2021/06/11 04:28:31;;;;;;;3.47;2.60;;;;;;;-143.37;100.00;65745.06;5092684;28;20218;-70
2021/06/11 04:30:58;;;;;;;3.97;2.13;;;;;;;-143.37;100.00;65745.06;5092471;28;20235;-71
2021/06/11 04:33:30;;;;;;;2.63;2.10;;;;;;;-143.37;100.00;65745.06;5091659;28;20603;-71
2021/06/11 04:35:57;;;;;;;8.33;2.20;;;;;;;-143.37;100.00;65745.06;5092397;28;20204;-71
2021/06/11 04:38:24;;;;;;;3.20;2.57;;;;;;;-143.37;100.00;65745.06;5074171;28;20664;-70
2021/06/11 04:40:51;;;;;;;3.77;2.40;;;;;;;-143.37;100.00;65745.06;5072966;28;20736;-71
2021/06/11 04:43:24;;;;;;;2.00;1.80;;;;;;;-143.37;100.00;65745.06;5071238;28;20723;-70
2021/06/11 04:45:50;;;;;;;2.77;1.83;;;;;;;-143.37;100.00;65745.06;5072051;28;20201;-71
2021/06/11 04:48:17;;;;;;;3.03;2.20;;;;;;;-143.37;100.00;65745.06;5071935;28;20319;-71
2021/06/11 04:50:43;;;;;;;3.77;1.93;;;;;;;-143.37;100.00;65745.06;5081829;28;20205;-71
2021/06/11 04:53:10;;;;;;;4.30;2.60;;;;;;;-143.37;100.00;65745.06;5091089;28;20264;-71
2021/06/11 04:55:37;;;;;;;1.93;1.73;;;;;;;-143.37;100.00;65745.06;5074272;28;20208;-71
2021/06/11 04:58:03;;;;;;;2.47;1.97;;;;;;;-143.37;100.00;65745.06;5092067;28;20239;-70
2021/06/11 05:00:30;;;;;;;4.97;2.33;;;;;;;-143.37;100.00;65745.06;5092025;28;20247;-70
2021/06/11 05:02:56;;;;;;;2.47;1.80;;;;;;;-143.37;100.00;65745.06;5091077;28;20232;-70
2021/06/11 05:05:23;;;;;;;2.30;1.75;;;;;;;-143.37;100.00;65745.06;5091932;28;20292;-70
2021/06/11 05:07:49;;;;;;;2.33;1.70;;;;;;;-143.37;100.00;65745.06;5091681;28;20250;-70
2021/06/11 05:10:16;;;;;;;2.70;2.10;;;;;;;-143.37;100.00;65745.06;5091699;28;20677;-70
2021/06/11 05:12:43;;;;;;;2.55;2.00;;;;;;;-143.37;100.00;65745.06;5090996;28;20259;-70
2021/06/11 05:15:10;;;;;;;2.25;1.73;;;;;;;-143.37;100.00;65745.06;5074372;28;20323;-71
2021/06/11 05:17:37;;;;;;;2.70;1.83;;;;;;;-143.37;100.00;65745.06;5093467;28;20208;-71
2021/06/11 05:20:04;;;;;;;3.45;2.08;;;;;;;-143.37;100.00;65745.06;5096192;28;20204;-70
2021/06/11 05:22:31;;;;;;;2.05;1.85;;;;;;;-143.37;100.00;65745.06;5076877;28;20254;-69
2021/06/11 05:24:59;;;;;;;2.10;1.70;;;;;;;-143.37;100.00;65745.06;5092017;28;20287;-70
2021/06/11 05:27:26;;;;;;;3.15;2.05;;;;;;;-143.37;100.00;65745.06;5074171;28;20648;-70
2021/06/11 05:29:52;;;;;;;3.08;2.00;;;;;;;-143.37;100.00;65745.06;5091572;28;20732;-71
2021/06/11 05:32:19;;;;;;;2.22;1.83;;;;;;;-143.37;100.00;65745.06;5072849;28;20770;-70
2021/06/11 05:34:46;;;;;;;2.00;1.52;;;;;;;-143.37;100.00;65745.06;5091184;28;20227;-70
2021/06/11 05:37:12;;;;;;;2.58;1.98;;;;;;;-143.37;100.00;65745.06;5073614;28;20295;-71
2021/06/11 05:39:38;;;;;;;2.67;2.08;;;;;;;-143.37;100.00;65745.06;5091309;28;20207;-71
2021/06/11 05:42:05;;;;;;;1.95;1.77;;;;;;;-143.37;100.00;65745.06;5079164;28;20221;-71
2021/06/11 05:44:32;;;;;;;2.55;2.00;;;;;;;-143.37;100.00;65745.06;5071111;28;20224;-71
2021/06/11 05:46:59;;;;;;;2.85;1.80;;;;;;;-143.37;100.00;65745.06;5070989;28;20211;-70
2021/06/11 05:49:25;;;;;;;2.92;1.80;;;;;;;-143.37;100.00;65745.06;5053349;28;20295;-70
2021/06/11 05:51:51;;;;;;;2.97;2.15;;;;;;;-143.37;100.00;65745.06;5089751;28;20281;-70
2021/06/11 05:54:18;;;;;;;2.35;2.00;;;;;;;-143.37;100.00;65745.06;5091344;28;20280;-70
2021/06/11 05:56:45;;;;;;;2.78;2.25;;;;;;;-143.37;100.00;65745.06;5087977;28;20214;-71
2021/06/11 05:59:11;;;;;;;2.28;1.77;;;;;;;-143.37;100.00;65745.06;5087845;28;20239;-70
2021/06/11 06:01:38;;;;;;;2.58;1.95;;;;;;;-143.37;100.00;65745.06;5087950;28;20285;-70
2021/06/11 06:04:04;;;;;;;2.20;1.63;;;;;;;-143.37;100.00;65745.06;5070892;28;20250;-69
2021/06/11 06:06:31;;;;;;;2.90;1.85;;;;;;;-143.37;100.00;65745.06;5087506;28;20805;-70
2021/06/11 06:08:57;;;;;;;4.93;1.80;;;;;;;-143.37;100.00;65745.06;5087356;28;20205;-67
2021/06/11 06:11:24;;;;;;;2.28;1.65;;;;;;;34.80;100.00;98159.41;5082817;28;20875;-70
2021/06/11 06:13:50;;;;;;;2.08;1.70;;;;;;;-143.37;100.00;65745.06;5083741;28;20271;-68
2021/06/11 06:16:17;;;;;;;2.20;1.88;;;;;;;34.73;100.00;98157.75;5088171;28;20780;-69
2021/06/11 06:18:44;;;;;;;2.60;1.77;;;;;;;35.00;100.00;98165.22;5088482;28;20219;-69
2021/06/11 06:21:11;;;;;;;1.90;1.63;;;;;;;35.60;100.00;98157.34;5092413;28;20213;-70
2021/06/11 06:23:38;;;;;;;1.60;1.50;;;;;;;36.23;100.00;98157.47;5091026;28;20303;-69
2021/06/11 06:26:05;;;;;;;1.70;1.58;;;;;;;36.45;100.00;98154.81;5092342;28;20207;-69
2021/06/11 06:28:32;;;;;;;2.45;1.85;;;;;;;36.78;100.00;98152.16;5091932;28;20232;-70
2021/06/11 06:30:58;;;;;;;1.92;1.60;;;;;;;36.74;100.00;98145.84;5090927;28;20205;-68
2021/06/11 06:33:25;;;;;;;2.17;1.70;;;;;;;37.06;100.00;98150.22;5091261;28;20319;-70
2021/06/11 06:35:51;;;;;;;1.88;1.52;;;;;;;37.10;100.00;98145.03;5092266;28;20295;-69
2021/06/11 06:38:18;;;;;;;2.80;1.70;;;;;;;37.35;98.75;98141.25;5092683;28;20312;-70
2021/06/11 06:40:48;;;;;;;2.42;1.55;;;;;;;37.20;100.00;98136.97;5091799;28;20236;-69
2021/06/11 06:43:14;;;;;;;1.70;1.60;;;;;;;37.17;96.93;98133.00;5086415;28;20303;-69
2021/06/11 06:45:41;;;;;;;2.20;1.90;;;;;;;37.79;93.23;98131.16;5079493;28;20225;-69
2021/06/11 06:48:07;;;;;;;2.75;1.90;;;;;;;37.50;97.30;98132.41;5091868;28;20279;-69
2021/06/11 06:50:34;;;;;;;1.58;1.35;;;;;;;36.44;100.00;98127.34;5092081;28;20314;-69
2021/06/11 06:53:03;;;;;;;2.05;1.80;;;;;;;36.23;100.00;98128.72;5091253;28;20263;-71
2021/06/11 06:55:30;;;;;;;2.90;1.70;;;;;;;36.83;100.00;98131.28;5063411;28;20287;-69
2021/06/11 06:57:57;;;;;;;1.70;1.60;;;;;;;37.16;97.58;98131.44;5091972;28;20290;-70
2021/06/11 07:00:24;;;;;;;1.83;1.52;;;;;;;37.84;96.09;98127.50;5091614;28;20238;-71
2021/06/11 07:02:50;;;;;;;1.60;1.50;;;;;;;37.25;97.89;98131.22;5083302;28;20232;-70
2021/06/11 07:05:17;;;;;;;1.67;1.58;;;;;;;37.01;99.01;98133.72;5078266;28;20219;-69
2021/06/11 07:07:44;;;;;;;1.73;1.50;;;;;;;37.30;97.72;98124.72;5088223;28;20308;-71
2021/06/11 07:10:12;;;;;;;1.98;1.73;;;;;;;36.60;99.33;98129.56;5065963;28;20200;-70
2021/06/11 07:12:40;;;;;;;1.90;1.60;;;;;;;37.06;100.00;98132.19;5089509;28;20229;-72
2021/06/11 07:15:09;;;;;;;2.78;1.77;;;;;;;36.63;100.00;98137.16;5089884;28;20224;-72
2021/06/11 07:17:40;;;;;;;3.80;2.22;;;;;;;36.71;100.00;98141.13;5091089;28;20207;-71
2021/06/11 07:20:08;;;;;;;1.77;1.50;;;;;;;36.77;100.00;98132.53;5092901;28;20236;-71
2021/06/11 07:22:35;;;;;;;2.03;1.73;;;;;;;36.43;100.00;98145.91;5078382;28;20254;-71
2021/06/11 07:25:05;;;;;;;2.00;1.80;;;;;;;36.63;100.00;98137.16;5059505;28;20350;-71
2021/06/11 07:27:33;;;;;;;3.05;2.10;;;;;;;36.80;100.00;98143.81;5086700;28;20238;-72
2021/06/11 07:30:08;;;;;;;2.08;1.88;;;;;;;36.75;99.10;98144.56;5055784;28;20208;-71
2021/06/11 07:32:40;;;;;;;1.40;1.30;;;;;;;-143.37;100.00;65745.06;5089008;28;20843;-72
2021/06/11 07:35:07;;;;;;;2.10;1.90;;;;;;;-143.37;100.00;65745.06;5086973;28;20738;-71
2021/06/11 07:37:33;;;;;;;1.75;1.65;;;;;;;-143.37;100.00;65745.06;5089608;28;20277;-70
2021/06/11 07:40:00;;;;;;;2.13;1.75;;;;;;;-143.37;100.00;65745.06;5090563;28;20203;-71
2021/06/11 07:42:26;;;;;;;2.95;1.88;;;;;;;-143.37;100.00;65745.06;5089079;28;20227;-71
2021/06/11 07:44:53;;;;;;;2.40;2.20;;;;;;;-143.37;100.00;65745.06;5086614;28;20310;-71
2021/06/11 07:47:20;;;;;;;2.05;1.85;;;;;;;-143.37;100.00;65745.06;5073922;28;20222;-73
2021/06/11 07:49:46;;;;;;;1.92;1.70;;;;;;;-143.37;100.00;65745.06;5083608;28;20224;-70
2021/06/11 07:52:13;;;;;;;2.42;1.83;;;;;;;-143.37;100.00;65745.06;5071935;28;20224;-72
2021/06/11 07:54:39;;;;;;;2.17;1.90;;;;;;;-143.37;100.00;65745.06;5066917;28;20291;-71
2021/06/11 07:57:07;;;;;;;2.35;1.95;;;;;;;-143.37;100.00;65745.06;5063252;28;20226;-70
2021/06/11 07:59:33;;;;;;;1.95;1.75;;;;;;;-143.37;100.00;65745.06;5072842;28;20684;-70
2021/06/11 08:02:00;;;;;;;2.90;1.60;;;;;;;-143.37;100.00;65745.06;5070233;28;20224;-70
2021/06/11 08:04:26;;;;;;;2.15;1.88;;;;;;;-143.37;100.00;65745.06;5089574;28;20306;-70
2021/06/11 08:06:53;;;;;;;2.13;1.92;;;;;;;-143.37;100.00;65745.06;5090520;28;20223;-70
2021/06/11 08:09:19;;;;;;;2.00;1.80;;;;;;;-143.37;100.00;65745.06;5090143;28;20668;-70
2021/06/11 08:11:45;;;;;;;1.60;1.50;;;;;;;-143.37;100.00;65745.06;5089725;28;20215;-70
2021/06/11 08:14:12;;;;;;;3.58;1.90;;;;;;;-143.37;100.00;65745.06;5072186;28;20206;-70
2021/06/11 08:16:39;;;;;;;3.75;1.83;;;;;;;-143.37;100.00;65745.06;5090681;28;20196;-70
2021/06/11 08:19:06;;;;;;;1.92;1.73;;;;;;;-143.37;100.00;65745.06;5090486;28;20293;-70
2021/06/11 08:21:32;;;;;;;1.55;1.45;;;;;;;-143.37;100.00;65745.06;5089636;28;20625;-70
2021/06/11 08:23:59;;;;;;;1.35;1.25;;;;;;;35.16;100.00;98128.13;5072268;28;20199;-71
2021/06/11 08:26:26;;;;;;;1.60;1.48;;;;;;;-143.37;100.00;65745.06;5090084;28;20303;-71
2021/06/11 08:28:52;;;;;;;1.35;1.25;;;;;;;35.22;100.00;98126.06;5090115;28;20632;-72
2021/06/11 08:31:19;;;;;;;1.50;1.25;;;;;;;35.19;100.00;98129.97;5071907;28;20214;-72
2021/06/11 08:33:46;;;;;;;1.50;1.40;;;;;;;35.66;100.00;98126.59;5071277;28;20235;-71
2021/06/11 08:36:16;;;;;;;1.23;1.13;;;;;;;35.40;100.00;98125.75;5090113;28;20628;-71
2021/06/11 08:38:43;;;;;;;1.27;1.17;;;;;;;35.27;100.00;98121.72;5090201;28;20207;-70
2021/06/11 08:41:12;;;;;;;2.53;1.60;;;;;;;-143.37;100.00;65745.06;5089876;28;20204;-71
2021/06/11 08:43:40;;;;;;;2.10;1.40;;;;;;;-143.37;100.00;65745.06;5088474;28;20224;-71
2021/06/11 08:46:09;;;;;;;1.75;1.48;;;;;;;35.39;100.00;98124.19;5054187;28;20304;-71
2021/06/11 08:48:36;;;;;;;1.35;1.20;;;;;;;-143.37;100.00;65745.06;5051705;28;20726;-73
2021/06/11 08:51:03;;;;;;;2.30;1.80;;;;;;;-143.37;100.00;65745.06;5082268;28;20707;-71
2021/06/11 08:53:30;;;;;;;1.55;1.40;;;;;;;35.44;100.00;98125.56;5089454;28;20755;-74
2021/06/11 08:55:59;;;;;;;1.48;1.38;;;;;;;-143.37;100.00;65745.06;5088665;28;20211;-73
2021/06/11 08:58:26;;;;;;;1.40;1.30;;;;;;;-143.37;100.00;65745.06;5089956;28;20238;-73
2021/06/11 09:00:53;;;;;;;1.45;1.35;;;;;;;35.31;100.00;98123.06;5076522;28;20821;-72
2021/06/11 09:03:25;;;;;;;2.15;1.55;;;;;;;-143.37;100.00;65745.06;5089058;28;20289;-73
2021/06/11 09:05:55;;;;;;;1.30;1.20;;;;;;;-143.37;100.00;72614.13;5088370;28;20276;-71
2021/06/11 09:08:27;;;;;;;1.23;1.13;;;;;;;35.79;100.00;98128.28;5089680;28;20210;-71
2021/06/11 09:11:22;;;;;;;1.25;1.15;;;;;;;-143.37;100.00;65745.06;5089385;28;20210;-71
2021/06/11 09:13:59;;;;;;;1.40;1.30;;;;;;;-143.37;100.00;65745.06;5088403;28;20224;-71
2021/06/11 09:16:27;;;;;;;1.40;1.30;;;;;;;-143.37;100.00;65745.06;5089324;28;20295;-71
2021/06/11 09:19:06;;;;;;;1.30;1.20;;;;;;;-143.37;100.00;65745.06;5089228;28;20298;-71
2021/06/11 09:21:43;;;;;;;1.48;1.35;;;;;;;-143.37;100.00;65745.06;5085863;28;20204;-71
2021/06/11 09:24:24;;;;;;;1.33;1.23;;;;;;;-143.37;100.00;65745.06;5053647;28;20309;-71
2021/06/11 09:26:56;;;;;;;1.50;1.40;;;;;;;-143.37;100.00;65745.06;5089269;28;20306;-71
2021/06/11 09:29:39;;;;;;;1.40;1.30;;;;;;;-143.37;100.00;65745.06;5071213;28;20261;-71
2021/06/11 09:32:26;;;;;;;1.30;1.20;;;;;;;-143.37;100.00;65745.06;5075131;28;20252;-72
2021/06/11 09:34:57;;;;;;;1.27;1.17;;;;;;;-143.37;100.00;65745.06;5077199;28;20201;-71
2021/06/11 09:37:34;;;;;;;1.35;1.17;;;;;;;-143.37;100.00;65745.06;5077379;28;20364;-71
2021/06/11 09:40:07;;;;;;;1.83;1.38;;;;;;;-143.37;100.00;65745.06;5069064;28;20207;-71
2021/06/11 09:42:37;;;;;;;3.70;1.40;;;;;;;-143.37;100.00;65745.06;5082775;28;20234;-70
2021/06/11 09:45:14;;;;;;;1.52;1.40;;;;;;;-143.37;100.00;65745.06;5080561;28;20220;-70
2021/06/11 09:47:42;;;;;;;1.48;1.38;;;;;;;-143.37;100.00;65745.06;5086225;28;20210;-70
2021/06/11 09:50:15;;;;;;;1.50;1.40;;;;;;;-143.37;100.00;65745.06;5087591;28;20212;-71
2021/06/11 09:52:55;;;;;;;1.75;1.63;;;;;;;-143.37;100.00;65745.06;5088172;28;20228;-71
2021/06/11 09:55:26;;;;;;;2.17;1.45;;;;;;;-143.37;100.00;65745.06;5088164;28;20257;-71
2021/06/11 09:58:12;;;;;;;1.92;1.52;;;;;;;-143.37;100.00;65745.06;5077228;28;20279;-71
2021/06/11 10:01:17;;;;;;;1.65;1.55;;;;;;;-143.37;100.00;65745.06;5091751;28;20298;-70
2021/06/11 10:03:47;;;;;;;1.67;1.58;;;;;;;-143.37;100.00;65745.06;5073762;28;20227;-71
2021/06/11 10:06:15;;;;;;;2.00;1.80;;;;;;;-143.37;100.00;65745.06;5092699;28;20236;-71
2021/06/11 10:08:44;;;;;;;2.20;1.80;;;;;;;-143.37;100.00;65745.06;5092197;28;20852;-71
2021/06/11 10:11:13;;;;;;;2.90;1.85;;;;;;;-143.37;100.00;65745.06;5091557;28;20210;-71
2021/06/11 10:13:43;;;;;;;1.30;1.20;;;;;;;-143.37;100.00;65745.06;5087708;28;20223;-70
2021/06/11 10:16:13;;;;;;;1.77;1.40;;;;;;;-143.37;100.00;65745.06;5091900;28;20690;-70
2021/06/11 10:18:40;;;;;;;2.08;1.67;;;;;;;-143.37;100.00;65745.06;5074028;28;20641;-70
2021/06/11 10:21:08;;;;;;;1.48;1.38;;;;;;;-143.37;100.00;65745.06;5092763;28;20290;-72
2021/06/11 10:23:37;;;;;;;1.90;1.50;;;;;;;-143.37;100.00;65745.06;5072480;28;20231;-71
2021/06/11 10:26:07;;;;;;;2.08;1.80;;;;;;;-143.37;100.00;65745.06;5073432;28;20324;-70
2021/06/11 10:28:46;;;;;;;1.90;1.55;;;;;;;-143.37;100.00;65745.06;5091968;28;20208;-71
2021/06/11 10:31:16;;;;;;;1.92;1.73;;;;;;;-143.37;100.00;65745.06;5093914;28;20239;-71
2021/06/11 10:33:43;;;;;;;1.63;1.52;;;;;;;-143.37;100.00;65745.06;5091654;28;20250;-70
2021/06/11 10:39:00;;;;;;;1.40;1.30;;;;;;;-143.37;100.00;65745.06;5091228;28;20247;-70
2021/06/11 10:41:28;;;;;;;1.85;1.65;;;;;;;-143.37;100.00;65745.06;5091378;28;20206;-70
2021/06/11 10:43:54;;;;;;;1.20;1.10;;;;;;;-143.37;100.00;65745.06;5091308;28;20235;-70
2021/06/11 10:46:24;;;;;;;1.73;1.60;;;;;;;-143.37;100.00;65745.06;5072086;28;20332;-70
2021/06/11 10:48:56;;;;;;;1.80;1.50;;;;;;;-143.37;100.00;65745.06;5074051;28;20250;-70
2021/06/11 10:51:45;;;;;;;1.70;1.60;;;;;;;-143.37;100.00;65745.06;5090641;28;20697;-70
2021/06/11 10:54:26;;;;;;;1.70;1.48;;;;;;;-143.37;100.00;65745.06;5090534;28;20292;-70
2021/06/11 10:56:55;;;;;;;1.67;1.50;;;;;;;-143.37;100.00;65745.06;5090942;28;20227;-70
2021/06/11 10:59:36;;;;;;;1.98;1.77;;;;;;;-143.37;100.00;65745.06;5090508;28;20213;-70
2021/06/11 11:02:04;;;;;;;1.50;1.40;;;;;;;-143.37;100.00;65745.06;5089153;28;20343;-71
2021/06/11 11:04:35;;;;;;;2.00;1.77;;;;;;;-143.37;100.00;65745.06;5091370;28;20743;-72
2021/06/11 11:07:24;;;;;;;2.97;2.22;;;;;;;-143.37;100.00;65745.06;5078681;28;20240;-70
2021/06/11 11:09:57;;;;;;;2.00;1.80;;;;;;;-143.37;100.00;65745.06;5070343;28;20261;-70
2021/06/11 11:12:29;;;;;;;1.63;1.48;;;;;;;-143.37;100.00;65745.06;5070155;28;20336;-70
2021/06/11 11:15:02;;;;;;;2.28;2.08;;;;;;;-143.37;100.00;65745.06;5054589;28;20572;-70
2021/06/11 11:17:28;;;;;;;2.17;1.67;;;;;;;-143.37;100.00;65745.06;5072161;28;20269;-71
2021/06/11 11:20:02;;;;;;;2.85;1.92;;;;;;;-143.37;100.00;65745.06;5072008;28;20244;-71
2021/06/11 11:22:35;;;;;;;2.10;1.73;;;;;;;-143.37;100.00;65745.06;5070618;28;20721;-71
2021/06/11 11:25:13;;;;;;;3.03;1.90;;;;;;;-143.37;100.00;65745.06;5071586;28;20205;-71
2021/06/11 11:27:52;;;;;;;1.95;1.70;;;;;;;-143.37;100.00;65745.06;5071608;28;20296;-70
2021/06/11 11:30:22;;;;;;;1.50;1.27;;;;;;;-143.37;100.00;65745.06;5071351;28;20497;-70
2021/06/11 11:32:50;;;;;;;1.55;1.42;;;;;;;-143.37;100.00;65745.06;5070108;28;20236;-71
2021/06/11 11:35:18;;;;;;;1.98;1.50;;;;;;;-143.37;100.00;65745.06;5053580;28;20198;-70
2021/06/11 11:37:48;;;;;;;1.73;1.38;;;;;;;-143.37;100.00;65745.06;5072087;28;20205;-69
2021/06/11 11:40:15;;;;;;;2.22;1.95;;;;;;;-143.37;100.00;65745.06;5053322;28;20693;-71
2021/06/11 11:42:42;;;;;;;2.08;1.77;;;;;;;-143.37;100.00;65745.06;5087195;28;20293;-70
2021/06/11 11:45:09;;;;;;;2.70;2.10;;;;;;;-143.37;100.00;65745.06;5081896;28;20308;-72
2021/06/11 11:47:36;;;;;;;2.13;1.90;;;;;;;-143.37;100.00;65745.06;5070913;28;20598;-72
2021/06/11 11:50:04;;;;;;;2.72;1.85;;;;;;;-143.37;100.00;65745.06;5074952;28;20206;-71
2021/06/11 11:52:32;;;;;;;4.15;1.80;;;;;;;-143.37;100.00;65745.06;5090083;28;20229;-72
2021/06/11 11:54:59;;;;;;;1.70;1.60;;;;;;;-143.37;100.00;65745.06;5091091;28;20205;-72
2021/06/11 11:57:26;;;;;;;1.75;1.60;;;;;;;-143.37;100.00;65745.06;5091090;28;20682;-71
2021/06/11 11:59:53;;;;;;;3.38;2.30;;;;;;;-143.37;100.00;65745.06;5090574;28;20318;-70
2021/06/11 12:02:20;;;;;;;3.17;2.13;;;;;;;-143.37;100.00;65745.06;5054916;28;20315;-70
2021/06/11 12:04:46;;;;;;;1.65;1.55;;;;;;;-143.37;100.00;65745.06;5091166;28;20232;-70
2021/06/11 12:07:13;;;;;;;2.17;1.80;;;;;;;-143.37;100.00;65745.06;5090909;28;20315;-70
2021/06/11 12:09:39;;;;;;;1.90;1.70;;;;;;;-143.37;100.00;65745.06;5089902;28;20299;-72
2021/06/11 12:12:06;;;;;;;1.95;1.77;;;;;;;-143.37;100.00;65745.06;5089070;28;20326;-71